createdAt,value
2017-08-02T00:00:12.780Z,86.70
2017-08-02T00:03:08.743Z,86.40
2017-08-02T00:12:09.042Z,88.70
2017-08-02T00:14:37.618Z,90.80
2017-08-02T00:17:05.845Z,92.50
2017-08-02T00:19:34.114Z,93.20
2017-08-02T00:22:02.382Z,92.80
2017-08-02T00:24:30.631Z,91.90
2017-08-02T00:26:58.937Z,90.60
2017-08-02T00:32:27.420Z,90.50
2017-08-02T00:34:55.656Z,91.20
2017-08-02T00:37:24.662Z,91.10
2017-08-02T00:40:09.909Z,91.10
2017-08-02T00:42:38.135Z,91.40
2017-08-02T00:45:06.374Z,92.10
2017-08-02T00:47:35.418Z,91.70
2017-08-02T00:50:03.664Z,91.70
2017-08-02T00:52:31.891Z,92.10
2017-08-02T00:55:00.162Z,92.60
2017-08-02T01:00:28.676Z,94.10
2017-08-02T01:02:56.913Z,93.90
2017-08-02T01:05:25.150Z,93.20
2017-08-02T01:07:53.437Z,92.90
2017-08-02T01:10:21.658Z,93.90
2017-08-02T01:12:49.885Z,96.20
2017-08-02T01:15:18.507Z,96.20
2017-08-02T01:17:46.740Z,96.60
2017-08-02T01:20:14.957Z,97.00
2017-08-02T01:22:43.225Z,94.50
2017-08-02T01:25:11.451Z,94.30
2017-08-02T01:27:40.443Z,93.40
2017-08-02T01:30:09.473Z,91.70
2017-08-02T01:32:37.706Z,91.70
2017-08-02T01:35:12.639Z,92.30
2017-08-02T01:38:09.310Z,93.50
2017-08-02T01:43:37.527Z,91.70
2017-08-02T01:46:05.756Z,91.70
2017-08-02T01:48:34.028Z,92.00
2017-08-02T01:51:02.303Z,92.60
2017-08-02T01:56:32.874Z,91.20
2017-08-02T01:59:01.116Z,91.20
2017-08-02T02:01:30.113Z,90.40
2017-08-02T02:03:59.153Z,90.70
2017-08-02T02:06:27.390Z,90.70
2017-08-02T02:08:56.390Z,89.90
2017-08-02T02:11:24.682Z,89.80
2017-08-02T02:13:52.925Z,89.40
2017-08-02T02:16:21.940Z,88.40
2017-08-02T02:18:50.198Z,88.30
2017-08-02T02:21:18.428Z,89.30
2017-08-02T02:23:46.649Z,90.50
2017-08-02T02:26:15.690Z,89.90
2017-08-02T02:28:43.931Z,89.90
2017-08-02T02:31:12.164Z,91.40
2017-08-02T02:33:40.438Z,93.40
2017-08-02T02:36:10.303Z,91.90
2017-08-02T02:38:38.530Z,91.50
2017-08-02T02:41:06.802Z,91.80
2017-08-02T02:43:35.016Z,91.90
2017-08-02T02:46:03.254Z,91.30
2017-08-02T02:48:31.507Z,90.70
2017-08-02T02:50:59.735Z,91.80
2017-08-02T02:53:27.959Z,93.90
2017-08-02T02:55:56.229Z,94.00
2017-08-02T03:01:07.916Z,94.10
2017-08-02T03:06:37.329Z,99.20
2017-08-02T03:09:05.564Z,99.30
2017-08-02T03:11:33.798Z,97.30
2017-08-02T03:14:02.055Z,96.10
2017-08-02T03:16:30.513Z,96.50
2017-08-02T03:18:58.742Z,95.50
2017-08-02T03:21:27.014Z,94.50
2017-08-02T03:23:55.253Z,94.70
2017-08-02T03:26:23.496Z,94.60
2017-08-02T03:28:51.766Z,95.10
2017-08-02T03:34:20.139Z,95.00
2017-08-02T03:36:48.362Z,93.00
2017-08-02T03:39:17.357Z,93.50
2017-08-02T03:41:46.385Z,92.80
2017-08-02T03:44:14.628Z,92.70
2017-08-02T03:46:42.849Z,93.20
2017-08-02T03:49:11.125Z,92.80
2017-08-02T03:51:39.368Z,92.80
2017-08-02T03:54:07.606Z,95.70
2017-08-02T03:56:35.870Z,99.00
2017-08-02T03:59:04.104Z,99.90
2017-08-02T04:01:32.370Z,99.90
2017-08-02T04:04:00.659Z,99.90
2017-08-02T04:06:28.895Z,99.90
2017-08-02T04:08:57.115Z,99.90
2017-08-02T04:11:25.392Z,99.90
2017-08-02T04:13:53.627Z,99.90
2017-08-02T04:16:21.949Z,99.90
2017-08-02T04:18:50.224Z,99.90
2017-08-02T04:21:18.452Z,99.90
2017-08-02T04:24:10.935Z,99.90
2017-08-02T04:26:39.172Z,99.90
2017-08-02T04:29:07.401Z,99.90
2017-08-02T04:31:35.667Z,99.90
2017-08-02T04:34:03.897Z,99.90
2017-08-02T04:36:32.896Z,99.90
2017-08-02T04:39:01.172Z,99.90
2017-08-02T04:44:30.021Z,99.90
2017-08-02T04:46:58.252Z,99.90
2017-08-02T04:49:26.499Z,99.90
2017-08-02T04:52:09.915Z,99.90
2017-08-02T04:54:38.712Z,99.90
2017-08-02T04:57:06.957Z,99.90
2017-08-02T04:59:35.238Z,99.90
2017-08-02T05:02:03.472Z,99.90
2017-08-02T05:04:31.723Z,99.90
2017-08-02T05:07:00.004Z,99.90
2017-08-02T05:12:28.610Z,99.90
2017-08-02T05:14:57.610Z,99.90
2017-08-02T05:17:26.601Z,99.90
2017-08-02T05:20:09.965Z,99.90
2017-08-02T05:22:38.259Z,99.90
2017-08-02T05:25:06.478Z,99.90
2017-08-02T05:27:35.507Z,99.90
2017-08-02T05:30:03.736Z,99.90
2017-08-02T05:32:31.956Z,99.90
2017-08-02T05:35:00.226Z,99.90
2017-08-02T05:40:30.089Z,99.90
2017-08-02T05:42:58.329Z,99.90
2017-08-02T05:45:26.552Z,99.90
2017-08-02T05:48:09.885Z,99.90
2017-08-02T05:50:38.108Z,99.90
2017-08-02T05:53:06.347Z,99.90
2017-08-02T05:55:35.466Z,99.90
2017-08-02T05:58:03.702Z,99.90
2017-08-02T06:00:31.950Z,99.90
2017-08-02T06:03:00.224Z,99.90
2017-08-02T06:08:29.013Z,99.90
2017-08-02T06:10:57.235Z,99.90
2017-08-02T06:13:25.461Z,99.90
2017-08-02T06:16:10.712Z,99.90
2017-08-02T06:19:09.532Z,99.90
2017-08-02T06:24:15.096Z,99.90
2017-08-02T06:26:43.365Z,99.90
2017-08-02T06:29:11.587Z,99.90
2017-08-02T06:31:39.824Z,99.90
2017-08-02T06:34:11.722Z,99.90
2017-08-02T06:36:39.941Z,99.90
2017-08-02T06:39:08.180Z,99.90
2017-08-02T06:41:36.454Z,99.90
2017-08-02T06:44:04.685Z,99.90
2017-08-02T06:46:32.928Z,99.90
2017-08-02T06:49:01.211Z,99.90
2017-08-02T06:51:29.433Z,99.90
2017-08-02T06:53:57.655Z,99.90
2017-08-02T06:56:25.923Z,99.90
2017-08-02T06:58:54.922Z,99.90
2017-08-02T07:01:23.929Z,99.90
2017-08-02T07:03:52.201Z,99.90
2017-08-02T07:06:20.435Z,99.90
2017-08-02T07:08:48.676Z,99.90
2017-08-02T07:15:11.259Z,99.90
2017-08-02T07:17:39.624Z,99.90
2017-08-02T07:20:07.853Z,99.90
2017-08-02T07:22:37.063Z,99.90
2017-08-02T07:25:05.329Z,99.90
2017-08-02T07:27:34.313Z,99.90
2017-08-02T07:30:10.106Z,99.90
2017-08-02T07:32:38.330Z,99.90
2017-08-02T07:35:06.562Z,99.90
2017-08-02T07:37:34.871Z,99.90
2017-08-02T07:40:10.713Z,99.90
2017-08-02T07:42:38.980Z,99.90
2017-08-02T07:45:07.207Z,99.90
2017-08-02T07:47:36.204Z,99.90
2017-08-02T07:50:04.471Z,99.90
2017-08-02T07:52:33.454Z,98.50
2017-08-02T07:55:02.460Z,97.40
2017-08-02T08:00:31.007Z,96.60
2017-08-02T08:03:11.850Z,96.80
2017-08-02T08:05:40.117Z,96.30
2017-08-02T08:08:08.359Z,94.20
2017-08-02T08:10:36.590Z,93.20
2017-08-02T08:13:04.871Z,92.70
2017-08-02T08:15:33.105Z,93.20
2017-08-02T08:18:01.350Z,94.00
2017-08-02T08:23:32.205Z,91.20
2017-08-02T08:28:43.880Z,90.70
2017-08-02T08:31:12.114Z,90.70
2017-08-02T08:33:40.365Z,90.90
2017-08-02T08:36:08.664Z,91.70
2017-08-02T08:38:37.662Z,88.30
2017-08-02T08:41:12.207Z,88.20
2017-08-02T08:43:40.445Z,83.30
2017-08-02T08:46:10.668Z,82.40
2017-08-02T08:48:39.705Z,86.40
2017-08-02T08:51:07.943Z,86.10
2017-08-02T08:53:36.947Z,85.50
2017-08-02T08:56:05.235Z,85.40
2017-08-02T08:58:33.456Z,86.20
2017-08-02T09:01:10.225Z,88.30
2017-08-02T09:03:38.454Z,85.70
2017-08-02T09:06:06.680Z,87.50
2017-08-02T09:11:35.483Z,83.10
2017-08-02T09:14:03.721Z,81.80
2017-08-02T09:19:32.790Z,81.90
2017-08-02T09:22:01.811Z,75.50
2017-08-02T09:24:30.089Z,76.00
2017-08-02T09:26:58.365Z,78.90
2017-08-02T09:32:26.716Z,75.90
2017-08-02T09:35:11.618Z,72.40
2017-08-02T09:37:39.881Z,73.80
2017-08-02T09:40:10.447Z,73.10
2017-08-02T09:42:38.668Z,72.20
2017-08-02T09:45:10.986Z,71.80
2017-08-02T09:47:39.223Z,71.30
2017-08-02T09:50:08.230Z,73.50
2017-08-02T09:52:37.271Z,71.60
2017-08-02T09:55:05.494Z,71.60
2017-08-02T09:57:34.504Z,68.70
2017-08-02T10:00:02.769Z,68.60
2017-08-02T10:02:31.009Z,71.70
2017-08-02T10:05:11.642Z,69.50
2017-08-02T10:07:40.605Z,68.70
2017-08-02T10:10:08.855Z,69.00
2017-08-02T10:12:37.916Z,69.60
2017-08-02T10:15:12.672Z,69.10
2017-08-02T10:17:40.954Z,68.20
2017-08-02T10:20:09.959Z,67.10
2017-08-02T10:22:38.967Z,69.40
2017-08-02T10:25:07.284Z,69.40
2017-08-02T10:30:36.800Z,68.80
2017-08-02T10:33:11.378Z,68.80
2017-08-02T10:35:40.420Z,68.20
2017-08-02T10:38:08.659Z,68.20
2017-08-02T10:40:36.882Z,66.10
2017-08-02T10:43:05.179Z,68.90
2017-08-02T10:45:33.417Z,67.30
2017-08-02T10:48:01.676Z,66.30
2017-08-02T10:50:29.961Z,68.10
2017-08-02T10:52:58.225Z,67.90
2017-08-02T10:58:27.286Z,65.40
2017-08-02T11:00:55.524Z,65.80
2017-08-02T11:03:23.749Z,65.40
2017-08-02T11:05:52.795Z,67.00
2017-08-02T11:08:21.026Z,67.00
2017-08-02T11:10:50.033Z,66.40
2017-08-02T11:13:18.320Z,66.10
2017-08-02T11:15:46.585Z,67.30
2017-08-02T11:18:14.808Z,65.60
2017-08-02T11:20:43.105Z,64.40
2017-08-02T11:23:11.329Z,64.90
2017-08-02T11:25:40.010Z,63.50
2017-08-02T11:28:08.265Z,63.00
2017-08-02T11:30:36.539Z,63.00
2017-08-02T11:33:04.848Z,62.50
2017-08-02T11:35:33.140Z,64.50
2017-08-02T11:38:01.391Z,64.30
2017-08-02T11:40:29.631Z,63.00
2017-08-02T11:43:11.323Z,62.60
2017-08-02T11:45:39.581Z,63.10
2017-08-02T11:48:07.796Z,61.40
2017-08-02T11:50:36.086Z,61.60
2017-08-02T11:53:04.328Z,61.40
2017-08-02T11:55:33.331Z,59.90
2017-08-02T11:58:01.615Z,59.90
2017-08-02T12:00:29.877Z,61.20
2017-08-02T12:02:58.861Z,59.10
2017-08-02T12:05:27.922Z,59.80
2017-08-02T12:07:56.159Z,59.70
2017-08-02T12:10:24.382Z,59.90
2017-08-02T12:12:52.647Z,62.70
2017-08-02T12:15:20.874Z,60.50
2017-08-02T12:17:49.099Z,62.30
2017-08-02T12:20:17.390Z,61.40
2017-08-02T12:23:09.549Z,59.90
2017-08-02T12:25:37.816Z,58.90
2017-08-02T12:28:06.921Z,59.50
2017-08-02T12:30:35.227Z,59.40
2017-08-02T12:33:10.271Z,58.50
2017-08-02T12:35:38.516Z,61.00
2017-08-02T12:38:06.737Z,62.40
2017-08-02T12:40:35.022Z,61.40
2017-08-02T12:43:03.266Z,61.50
2017-08-02T12:45:31.498Z,59.60
2017-08-02T12:47:59.768Z,60.10
2017-08-02T12:53:30.363Z,63.20
2017-08-02T12:55:58.603Z,63.00
2017-08-02T12:58:26.834Z,62.30
2017-08-02T13:00:55.113Z,62.90
2017-08-02T13:03:23.350Z,62.30
2017-08-02T13:05:51.589Z,62.70
2017-08-02T13:08:20.649Z,65.10
2017-08-02T13:10:48.888Z,65.00
2017-08-02T13:13:17.103Z,66.00
2017-08-02T13:16:11.518Z,60.80
2017-08-02T13:18:39.741Z,64.00
2017-08-02T13:21:07.989Z,68.20
2017-08-02T13:23:36.284Z,71.80
2017-08-02T13:26:04.529Z,73.40
2017-08-02T13:28:33.531Z,72.90
2017-08-02T13:31:01.814Z,72.00
2017-08-02T13:36:30.886Z,72.40
2017-08-02T13:38:59.130Z,73.20
2017-08-02T13:41:27.363Z,73.80
2017-08-02T13:43:56.978Z,73.70
2017-08-02T13:46:25.202Z,73.70
2017-08-02T13:48:54.268Z,68.30
2017-08-02T13:51:22.560Z,69.10
2017-08-02T13:53:50.804Z,67.40
2017-08-02T13:56:19.054Z,67.60
2017-08-02T13:58:47.587Z,69.20
2017-08-02T14:01:15.836Z,69.40
2017-08-02T14:03:44.085Z,69.60
2017-08-02T14:06:12.359Z,69.40
2017-08-02T14:08:40.626Z,69.60
2017-08-02T14:11:12.081Z,68.80
2017-08-02T14:13:40.308Z,68.80
2017-08-02T14:16:11.613Z,68.30
2017-08-02T14:18:40.622Z,67.40
2017-08-02T14:21:09.624Z,65.60
2017-08-02T14:23:37.888Z,65.60
2017-08-02T14:26:12.211Z,65.60
2017-08-02T14:28:40.504Z,64.30
2017-08-02T14:31:08.785Z,64.00
2017-08-02T14:33:37.030Z,63.10
2017-08-02T14:36:05.323Z,64.20
2017-08-02T14:38:33.556Z,62.10
2017-08-02T14:41:01.817Z,63.20
2017-08-02T14:43:30.095Z,62.60
2017-08-02T14:45:58.340Z,62.20
2017-08-02T14:48:26.595Z,61.80
2017-08-02T14:50:54.885Z,60.10
2017-08-02T14:53:23.120Z,59.50
2017-08-02T14:55:51.369Z,58.60
2017-08-02T14:58:19.729Z,59.50
2017-08-02T15:00:47.966Z,57.60
2017-08-02T15:03:16.210Z,55.50
2017-08-02T15:05:44.500Z,55.00
2017-08-02T15:08:12.734Z,54.70
2017-08-02T15:10:40.971Z,55.80
2017-08-02T15:13:12.370Z,54.80
2017-08-02T15:15:40.624Z,55.00
2017-08-02T15:18:08.852Z,53.40
2017-08-02T15:20:37.860Z,53.20
2017-08-02T15:23:06.107Z,53.10
2017-08-02T15:25:34.358Z,50.40
2017-08-02T15:28:02.658Z,50.10
2017-08-02T15:30:32.881Z,51.60
2017-08-02T15:33:01.894Z,51.90
2017-08-02T15:35:30.190Z,51.80
2017-08-02T15:37:58.433Z,50.50
2017-08-02T15:40:26.718Z,50.70
2017-08-02T15:42:55.835Z,49.60
2017-08-02T15:45:24.095Z,49.40
2017-08-02T15:47:52.330Z,48.10
2017-08-02T15:50:20.619Z,48.60
2017-08-02T15:52:48.859Z,50.20
2017-08-02T15:57:54.891Z,49.00
2017-08-02T16:00:23.132Z,47.60
2017-08-02T16:05:34.776Z,48.50
2017-08-02T16:08:03.009Z,48.00
2017-08-02T16:10:31.225Z,47.30
2017-08-02T16:12:59.498Z,45.10
2017-08-02T16:15:27.726Z,45.50
2017-08-02T16:17:55.962Z,44.90
2017-08-02T16:20:24.251Z,45.90
2017-08-02T16:22:52.502Z,46.50
2017-08-02T16:25:20.740Z,46.20
2017-08-02T16:27:49.015Z,46.20
2017-08-02T16:30:17.280Z,48.20
2017-08-02T16:32:45.728Z,49.40
2017-08-02T16:35:14.038Z,48.40
2017-08-02T16:37:42.288Z,49.80
2017-08-02T16:40:10.527Z,51.20
2017-08-02T16:42:38.810Z,50.40
2017-08-02T16:45:07.064Z,50.90
2017-08-02T16:47:36.085Z,50.40
2017-08-02T16:50:11.148Z,50.30
2017-08-02T16:52:39.402Z,50.20
2017-08-02T16:55:07.638Z,49.60
2017-08-02T16:57:35.907Z,50.00
2017-08-02T17:00:10.970Z,50.70
2017-08-02T17:03:09.523Z,50.20
2017-08-02T17:05:37.762Z,50.10
2017-08-02T17:08:06.018Z,49.60
2017-08-02T17:10:34.274Z,50.00
2017-08-02T17:13:03.280Z,48.70
2017-08-02T17:15:31.502Z,48.70
2017-08-02T17:18:12.806Z,49.20
2017-08-02T17:20:41.848Z,48.70
2017-08-02T17:23:10.107Z,48.70
2017-08-02T17:25:38.363Z,49.30
2017-08-02T17:28:06.605Z,49.10
2017-08-02T17:30:34.831Z,49.90
2017-08-02T17:33:10.472Z,48.60
2017-08-02T17:35:38.706Z,50.10
2017-08-02T17:38:06.931Z,51.10
2017-08-02T17:40:35.208Z,50.30
2017-08-02T17:43:03.455Z,49.50
2017-08-02T17:45:31.705Z,49.00
2017-08-02T17:47:59.996Z,49.30
2017-08-02T17:50:28.267Z,49.00
2017-08-02T17:52:56.494Z,49.40
2017-08-02T17:55:24.755Z,50.10
2017-08-02T17:57:52.990Z,51.70
2017-08-02T18:00:21.247Z,51.50
2017-08-02T18:02:50.351Z,50.60
2017-08-02T18:05:18.613Z,51.00
2017-08-02T18:07:46.858Z,50.50
2017-08-02T18:10:15.144Z,50.70
2017-08-02T18:13:09.950Z,54.30
2017-08-02T18:15:38.227Z,52.50
2017-08-02T18:18:12.578Z,52.30
2017-08-02T18:20:40.837Z,51.90
2017-08-02T18:23:12.562Z,53.10
2017-08-02T18:25:40.905Z,53.80
2017-08-02T18:28:10.879Z,54.70
2017-08-02T18:30:39.103Z,56.30
2017-08-02T18:33:08.198Z,59.00
2017-08-02T18:35:37.332Z,60.90
2017-08-02T18:40:38.473Z,62.10
2017-08-02T18:43:06.740Z,60.20
2017-08-02T18:45:34.993Z,59.10
2017-08-02T18:48:04.026Z,57.60
2017-08-02T18:50:32.300Z,57.60
2017-08-02T18:53:11.489Z,57.00
2017-08-02T18:56:09.710Z,56.60
2017-08-02T18:58:38.062Z,56.30
2017-08-02T19:01:06.309Z,56.20
2017-08-02T19:03:35.342Z,56.20
2017-08-02T19:06:03.598Z,56.20
2017-08-02T19:08:32.617Z,59.40
2017-08-02T19:11:01.901Z,59.40
2017-08-02T19:13:30.248Z,62.10
2017-08-02T19:15:58.507Z,61.40
2017-08-02T19:18:26.734Z,62.20
2017-08-02T19:21:11.774Z,61.30
2017-08-02T19:24:09.902Z,59.40
2017-08-02T19:26:38.387Z,59.70
2017-08-02T19:29:06.641Z,59.50
2017-08-02T19:31:34.887Z,58.50
2017-08-02T19:34:03.916Z,58.00
2017-08-02T19:36:32.205Z,57.90
2017-08-02T19:39:00.452Z,57.80
2017-08-02T19:41:28.748Z,58.00
2017-08-02T19:43:57.011Z,58.70
2017-08-02T19:46:25.273Z,60.40
2017-08-02T19:49:10.817Z,59.00
2017-08-02T19:51:39.039Z,58.80
2017-08-02T19:54:07.293Z,59.50
2017-08-02T19:56:35.591Z,59.30
2017-08-02T19:59:03.853Z,60.00
2017-08-02T20:01:32.857Z,60.70
2017-08-02T20:04:11.516Z,59.90
2017-08-02T20:06:39.771Z,60.30
2017-08-02T20:09:08.013Z,65.10
2017-08-02T20:11:37.402Z,65.50
2017-08-02T20:14:06.424Z,69.70
2017-08-02T20:16:34.671Z,68.80
2017-08-02T20:19:03.846Z,63.30
2017-08-02T20:21:32.110Z,63.20
2017-08-02T20:24:00.363Z,62.60
2017-08-02T20:26:28.659Z,64.70
2017-08-02T20:28:56.914Z,68.90
2017-08-02T20:34:25.728Z,73.40
2017-08-02T20:36:53.987Z,75.50
2017-08-02T20:39:22.253Z,73.60
2017-08-02T20:41:50.560Z,71.40
2017-08-02T20:44:18.802Z,72.40
2017-08-02T20:46:47.058Z,71.70
2017-08-02T20:49:16.266Z,74.20
2017-08-02T20:51:45.268Z,73.80
2017-08-02T20:54:13.497Z,73.70
2017-08-02T20:56:41.802Z,72.00
2017-08-02T20:59:11.438Z,70.70
2017-08-02T21:02:10.003Z,70.60
2017-08-02T21:04:39.019Z,87.30
2017-08-02T21:07:07.271Z,87.30
2017-08-02T21:09:36.324Z,88.30
2017-08-02T21:12:11.064Z,88.10
2017-08-02T21:14:39.449Z,89.30
2017-08-02T21:17:07.685Z,90.30
2017-08-02T21:19:35.904Z,99.90
2017-08-02T21:22:04.166Z,99.90
2017-08-02T21:24:32.397Z,99.90
2017-08-02T21:27:00.630Z,99.90
2017-08-02T21:29:29.665Z,99.90
2017-08-02T21:31:57.902Z,99.90
2017-08-02T21:37:26.965Z,99.90
2017-08-02T21:40:11.636Z,99.90
2017-08-02T21:42:39.905Z,99.90
2017-08-02T21:45:08.134Z,99.90
2017-08-02T21:47:37.126Z,99.90
2017-08-02T21:50:06.174Z,99.90
2017-08-02T21:52:34.408Z,99.90
2017-08-02T21:55:11.868Z,99.90
2017-08-02T21:57:40.101Z,99.90
2017-08-02T22:00:08.353Z,99.90
2017-08-02T22:02:36.635Z,99.90
2017-08-02T22:05:04.861Z,99.90
2017-08-02T22:07:33.097Z,99.90
2017-08-02T22:10:11.028Z,99.90
2017-08-02T22:12:39.276Z,99.90
2017-08-02T22:15:07.514Z,99.90
2017-08-02T22:17:35.801Z,99.90
2017-08-02T22:20:04.026Z,99.90
2017-08-02T22:22:32.266Z,99.90
2017-08-02T22:25:00.766Z,99.90
2017-08-02T22:27:29.002Z,99.90
2017-08-02T22:29:58.004Z,99.90
2017-08-02T22:32:26.291Z,99.90
2017-08-02T22:34:54.521Z,99.90
2017-08-02T22:37:22.748Z,99.90
2017-08-02T22:39:51.076Z,99.90
2017-08-02T22:42:19.311Z,99.90
2017-08-02T22:44:47.535Z,99.90
2017-08-02T22:47:15.806Z,99.90
2017-08-02T22:49:44.793Z,99.90
2017-08-02T22:52:13.023Z,99.90
2017-08-02T22:54:41.317Z,99.90
2017-08-02T22:57:09.560Z,99.90
2017-08-02T23:02:38.554Z,99.90
2017-08-02T23:05:12.816Z,99.90
2017-08-02T23:08:09.473Z,99.90
2017-08-02T23:10:37.714Z,99.90
2017-08-02T23:13:11.890Z,99.90
2017-08-02T23:15:40.124Z,99.90
2017-08-02T23:18:11.565Z,99.90
2017-08-02T23:20:39.862Z,99.90
2017-08-02T23:23:11.118Z,99.90
2017-08-02T23:26:09.397Z,99.90
2017-08-02T23:28:37.617Z,99.90
2017-08-02T23:31:05.863Z,99.90
2017-08-02T23:36:34.875Z,99.90
2017-08-02T23:39:11.113Z,99.90
2017-08-02T23:41:39.390Z,99.90
2017-08-02T23:44:11.075Z,99.90
2017-08-02T23:47:09.699Z,99.90
2017-08-02T23:52:38.366Z,99.90
2017-08-02T23:55:06.593Z,99.90
2017-08-02T23:57:35.667Z,99.90
